Conroe's Hourly Summary for Thursday, May 10, 2018
Hour Temp
(f)
RH
(%)
Solar Rad.
(MJ/m2)
Rainfall
(in)
Wind
(mph)
5/10/2018 12:00 AM 63 76 0 0 0
5/10/2018 1:00 AM 61 84 0 0 0
5/10/2018 2:00 AM 60 86 0 0 0
5/10/2018 3:00 AM 58 88 0 0 0
5/10/2018 4:00 AM 57 89 0 0 0
5/10/2018 5:00 AM 57 90 0 0 0
5/10/2018 6:00 AM 57 90 0.03 0 0
5/10/2018 7:00 AM 61 77 0.41 0 0
5/10/2018 8:00 AM 69 74 1.1 0 1.14
5/10/2018 9:00 AM 75 58 1.8 0 2.76
5/10/2018 10:00 AM 79 46 2.42 0 3.12
5/10/2018 11:00 AM 81 38 2.75 0 3.2
5/10/2018 12:00 PM 83 35 3.12 0 3.9
5/10/2018 1:00 PM 84 34 3.16 0 4.14
5/10/2018 2:00 PM 85 33 3.24 0 4.16
5/10/2018 3:00 PM 85 32 2.75 0 4.75
5/10/2018 4:00 PM 84 35 1.92 0 5.07
5/10/2018 5:00 PM 82 41 1.14 0 5.31
5/10/2018 6:00 PM 80 46 0.7 0 5.58
5/10/2018 7:00 PM 78 46 0.08 0 4.07
5/10/2018 8:00 PM 75 48 0 0 3.47
5/10/2018 9:00 PM 72 53 0 0 2.83
5/10/2018 10:00 PM 70 58 0 0 1.68
5/10/2018 11:00 PM 69 62 0 0 0.81
Data Summary 71 59 24.62 0.00 2.33